createdAt,value
2018-06-23T21:43:01.960Z,54.00
2018-06-23T21:45:30.439Z,54.00
2018-06-23T21:47:59.233Z,54.00
2018-06-23T21:50:27.967Z,54.00
2018-06-23T21:52:57.116Z,54.10
2018-06-23T21:55:26.074Z,54.00
2018-06-23T21:57:54.657Z,54.10
2018-06-23T22:00:43.855Z,54.10
2018-06-23T22:03:13.628Z,54.20
2018-06-23T22:05:42.824Z,54.20
2018-06-23T22:08:11.073Z,54.10
2018-06-23T22:10:40.014Z,54.20
2018-06-23T22:13:08.814Z,54.20
2018-06-23T22:15:37.365Z,54.20
2018-06-23T22:18:06.267Z,54.20
2018-06-23T22:23:03.656Z,54.20
2018-06-23T22:25:32.156Z,54.20
2018-06-23T22:28:00.698Z,54.20
2018-06-23T22:30:29.342Z,54.30
2018-06-23T22:32:58.039Z,54.70
2018-06-23T22:35:27.293Z,54.30
2018-06-23T22:37:56.658Z,54.30
2018-06-23T22:40:24.872Z,54.30
2018-06-23T22:42:53.136Z,54.30
2018-06-23T22:45:21.415Z,54.40
2018-06-23T22:47:49.950Z,54.40
2018-06-23T22:50:18.160Z,54.40
2018-06-23T22:52:46.876Z,54.40
2018-06-23T22:55:16.788Z,54.40
2018-06-23T22:57:45.890Z,54.40
2018-06-23T23:00:15.216Z,54.40
2018-06-23T23:02:44.283Z,54.30
2018-06-23T23:05:12.494Z,54.50
2018-06-23T23:07:41.135Z,54.40
2018-06-23T23:10:10.286Z,54.50
2018-06-23T23:12:45.122Z,54.40
2018-06-23T23:15:13.240Z,54.50
2018-06-23T23:17:42.094Z,54.50
2018-06-23T23:20:10.802Z,54.50
2018-06-23T23:22:39.803Z,54.60
2018-06-23T23:25:08.248Z,54.90
2018-06-23T23:27:36.518Z,54.90
2018-06-23T23:30:06.361Z,54.60
2018-06-23T23:32:34.691Z,54.70
2018-06-23T23:35:02.933Z,54.70
2018-06-23T23:37:31.186Z,54.60
2018-06-23T23:39:59.777Z,54.60
2018-06-23T23:42:27.964Z,54.70
2018-06-23T23:44:56.144Z,54.70
2018-06-23T23:47:24.870Z,54.60
2018-06-23T23:49:53.927Z,54.70
2018-06-23T23:52:22.440Z,54.70
2018-06-23T23:54:51.036Z,54.70
2018-06-23T23:57:19.674Z,54.60
2018-06-23T23:59:48.795Z,54.70
